Time;durP1;ratioP1;P1;durP2;ratioP2;P2;SDS_P1;SDS_P2;PMS_P1;PMS_P2;Temp;Humidity;BMP_temperature;BMP_pressure;BME280_temperature;BME280_humidity;BME280_pressure;Samples;Min_cycle;Max_cycle;Signal;HPM_P1;HPM_P2
2022/04/09 00:01:21;;;;;;;30.65;26.45;;;28.30;86.10;;;;;;5151123;27;20319;-58
2022/04/09 00:03:48;;;;;;;30.45;25.65;;;28.30;86.10;;;;;;5150285;27;20030;-56
2022/04/09 00:06:15;;;;;;;35.35;30.65;;;28.20;85.90;;;;;;5147194;27;20065;-54
2022/04/09 00:08:41;;;;;;;71.97;61.03;;;28.30;86.00;;;;;;5148027;27;20037;-53
2022/04/09 00:11:08;;;;;;;93.45;76.55;;;28.30;85.80;;;;;;5147726;27;20074;-50
2022/04/09 00:13:37;;;;;;;57.20;51.08;;;28.30;85.60;;;;;;5148281;27;20299;-51
2022/04/09 00:16:04;;;;;;;49.65;42.70;;;28.30;85.60;;;;;;5147736;27;20046;-57
2022/04/09 00:18:30;;;;;;;46.47;40.00;;;28.20;85.70;;;;;;5147952;27;20019;-55
2022/04/09 00:20:57;;;;;;;42.40;35.13;;;28.20;85.70;;;;;;5147798;27;20046;-57
2022/04/09 00:23:23;;;;;;;39.10;34.92;;;28.20;85.60;;;;;;5148091;27;20319;-56
2022/04/09 00:25:51;;;;;;;36.83;31.60;;;28.20;85.50;;;;;;5147355;27;20022;-62
2022/04/09 00:28:18;;;;;;;33.90;30.13;;;28.20;85.20;;;;;;5147960;27;20082;-56
2022/04/09 00:30:45;;;;;;;36.00;30.35;;;28.20;84.90;;;;;;5147501;27;20220;-55
2022/04/09 00:33:11;;;;;;;36.97;31.85;;;28.20;84.90;;;;;;5147590;27;20022;-54
2022/04/09 00:35:38;;;;;;;37.75;33.70;;;28.20;84.80;;;;;;5147310;27;20189;-53
2022/04/09 00:38:05;;;;;;;41.90;33.47;;;28.10;84.90;;;;;;5147640;27;20062;-54
2022/04/09 00:40:31;;;;;;;34.08;29.50;;;28.20;84.80;;;;;;5147108;27;20236;-52
2022/04/09 00:42:59;;;;;;;36.47;30.20;;;28.10;84.60;;;;;;5147643;27;20069;-53
2022/04/09 00:45:26;;;;;;;32.72;29.15;;;28.10;84.50;;;;;;5147002;27;20030;-50
2022/04/09 00:47:53;;;;;;;38.55;29.13;;;28.10;84.50;;;;;;5147248;27;20030;-55
2022/04/09 00:50:20;;;;;;;34.05;28.13;;;28.10;84.50;;;;;;5146977;27;20314;-54
2022/04/09 00:52:51;;;;;;;35.33;28.10;;;28.10;84.10;;;;;;5147395;27;20360;-54
2022/04/09 00:56:12;;;;;;;31.60;28.40;;;28.10;84.00;;;;;;5146865;27;20042;-58
2022/04/09 00:58:14;;;;;;;32.17;27.20;;;28.10;84.20;;;;;;5147248;27;20037;-57
2022/04/09 01:00:43;;;;;;;32.15;27.27;;;28.10;83.80;;;;;;5146749;27;20307;-56
2022/04/09 01:03:19;;;;;;;31.52;27.20;;;28.10;83.90;;;;;;5147159;27;20034;-57
2022/04/09 01:05:50;;;;;;;33.47;27.15;;;28.10;83.80;;;;;;5146498;27;20207;-56
2022/04/09 01:08:18;;;;;;;29.42;24.77;;;28.10;83.60;;;;;;5147211;27;20139;-59
2022/04/09 01:10:52;;;;;;;29.55;25.33;;;28.10;83.50;;;;;;5146737;27;20021;-57
2022/04/09 01:13:19;;;;;;;29.95;25.27;;;28.10;83.60;;;;;;5146853;27;20071;-55
2022/04/09 01:15:46;;;;;;;28.40;23.85;;;28.00;83.40;;;;;;5146370;27;20080;-59
2022/04/09 01:18:15;;;;;;;29.02;24.40;;;28.00;83.60;;;;;;5147075;27;20027;-55
2022/04/09 01:20:42;;;;;;;26.08;23.30;;;28.00;83.40;;;;;;5146282;27;20311;-55
2022/04/09 01:23:08;;;;;;;29.52;23.55;;;28.00;83.40;;;;;;5146884;27;20019;-54
2022/04/09 01:25:37;;;;;;;28.73;23.30;;;28.00;83.10;;;;;;5146311;27;20025;-55
2022/04/09 01:28:05;;;;;;;29.17;23.55;;;28.00;83.20;;;;;;5146423;27;20042;-58
2022/04/09 01:30:31;;;;;;;27.45;23.35;;;28.00;83.00;;;;;;5146192;27;20019;-53
2022/04/09 01:32:59;;;;;;;25.20;22.65;;;28.00;83.00;;;;;;5146609;27;20203;-53
2022/04/09 01:35:26;;;;;;;27.85;22.67;;;28.00;83.10;;;;;;5145986;27;20022;-49
2022/04/09 01:37:52;;;;;;;25.95;22.90;;;27.90;82.40;;;;;;5146561;27;20299;-48
2022/04/09 01:40:19;;;;;;;29.48;22.85;;;27.90;82.60;;;;;;5145915;27;20082;-53
2022/04/09 01:42:45;;;;;;;30.40;23.00;;;28.00;82.80;;;;;;5146188;27;20057;-54
2022/04/09 01:45:12;;;;;;;27.38;22.98;;;27.90;82.50;;;;;;5145998;27;20098;-51
2022/04/09 01:47:42;;;;;;;29.85;23.40;;;27.90;82.60;;;;;;5146253;27;20023;-57
2022/04/09 01:50:11;;;;;;;27.67;24.15;;;28.00;82.80;;;;;;5145723;27;20019;-58
2022/04/09 01:52:37;;;;;;;27.65;24.52;;;27.90;82.80;;;;;;5127321;27;20300;-56
2022/04/09 01:55:05;;;;;;;27.75;23.15;;;27.90;82.90;;;;;;5145908;27;20086;-56
2022/04/09 01:57:33;;;;;;;32.20;23.85;;;27.90;82.80;;;;;;5145769;27;20061;-57
2022/04/09 02:00:00;;;;;;;34.13;24.98;;;27.90;82.70;;;;;;5145639;27;20208;-53
2022/04/09 02:02:27;;;;;;;28.38;25.15;;;27.90;82.50;;;;;;5145929;27;20380;-56
2022/04/09 02:04:53;;;;;;;30.90;24.65;;;27.90;82.70;;;;;;5145491;27;20031;-57
2022/04/09 02:07:20;;;;;;;26.52;22.95;;;27.90;82.50;;;;;;5145722;27;20019;-58
2022/04/09 02:09:46;;;;;;;27.08;22.38;;;27.90;82.50;;;;;;5145512;27;20027;-52
2022/04/09 02:12:13;;;;;;;25.52;22.73;;;27.90;82.30;;;;;;5145509;27;20027;-57
2022/04/09 02:14:40;;;;;;;23.92;21.33;;;27.90;82.10;;;;;;5145394;27;20074;-56
2022/04/09 02:17:06;;;;;;;23.42;20.35;;;27.90;82.10;;;;;;5145645;27;20035;-52
2022/04/09 02:19:33;;;;;;;25.98;20.77;;;27.80;82.20;;;;;;5144992;27;20090;-58
2022/04/09 02:22:00;;;;;;;23.83;20.25;;;27.80;82.10;;;;;;5145557;27;20029;-57
2022/04/09 02:24:27;;;;;;;23.88;20.35;;;27.80;82.10;;;;;;5145273;27;20030;-53
2022/04/09 02:26:53;;;;;;;24.38;20.70;;;27.80;81.70;;;;;;5145090;27;20102;-54
2022/04/09 02:29:20;;;;;;;23.42;19.60;;;27.80;82.10;;;;;;5144980;27;20011;-53
2022/04/09 02:31:47;;;;;;;24.10;20.02;;;27.80;81.60;;;;;;5145360;27;20019;-57
2022/04/09 02:34:13;;;;;;;23.42;20.52;;;27.80;82.40;;;;;;5144958;27;20031;-55
2022/04/09 02:36:40;;;;;;;21.67;19.38;;;27.80;81.70;;;;;;5145006;27;20030;-58
2022/04/09 02:39:06;;;;;;;26.73;19.38;;;27.80;81.60;;;;;;5144980;27;20025;-49
2022/04/09 02:41:33;;;;;;;22.95;19.98;;;27.80;81.60;;;;;;5144853;27;20046;-55
2022/04/09 02:44:00;;;;;;;24.38;19.75;;;27.80;81.60;;;;;;5144920;27;20015;-59
2022/04/09 02:46:26;;;;;;;28.92;19.45;;;27.80;81.50;;;;;;5144899;27;20047;-55
2022/04/09 02:48:53;;;;;;;22.63;20.15;;;27.80;81.30;;;;;;5144773;27;20064;-54
2022/04/09 02:51:20;;;;;;;22.60;19.58;;;27.80;81.40;;;;;;5144739;28;20062;-56
2022/04/09 02:53:46;;;;;;;22.45;20.00;;;27.80;81.40;;;;;;5145003;28;20019;-57
2022/04/09 02:56:13;;;;;;;21.90;18.75;;;27.80;81.00;;;;;;5144681;28;20218;-54
2022/04/09 02:58:39;;;;;;;24.88;19.65;;;27.80;81.20;;;;;;5144961;28;20058;-58
2022/04/09 03:01:06;;;;;;;22.35;19.33;;;27.80;81.20;;;;;;5145101;28;20023;-55
2022/04/09 03:03:33;;;;;;;23.85;18.98;;;27.80;81.00;;;;;;5145197;28;20035;-58
2022/04/09 03:05:59;;;;;;;22.98;20.13;;;27.80;81.00;;;;;;5144981;28;20035;-53
2022/04/09 03:08:26;;;;;;;23.83;20.27;;;27.80;80.70;;;;;;5145193;28;20023;-57
2022/04/09 03:10:53;;;;;;;22.30;20.00;;;27.80;81.00;;;;;;5144932;28;20023;-55
2022/04/09 03:13:20;;;;;;;23.27;19.17;;;27.80;80.90;;;;;;5144928;28;20191;-55
2022/04/09 03:15:46;;;;;;;21.35;19.20;;;27.70;80.80;;;;;;5144813;28;20023;-54
2022/04/09 03:18:13;;;;;;;25.48;20.27;;;27.80;80.70;;;;;;5145171;28;20062;-55
2022/04/09 03:20:39;;;;;;;24.17;19.75;;;27.80;80.80;;;;;;5144526;28;20038;-51
2022/04/09 03:23:06;;;;;;;23.75;19.10;;;27.70;80.90;;;;;;5144648;28;20027;-50
2022/04/09 03:25:33;;;;;;;27.30;20.35;;;27.70;80.90;;;;;;5144515;28;20038;-51
2022/04/09 03:27:59;;;;;;;23.70;19.45;;;27.80;80.80;;;;;;5144782;28;20064;-51
2022/04/09 03:30:26;;;;;;;23.85;19.20;;;27.70;80.90;;;;;;5144786;28;20015;-53
2022/04/09 03:32:53;;;;;;;25.48;20.10;;;27.70;81.00;;;;;;5144897;28;20042;-58
2022/04/09 03:35:19;;;;;;;22.33;20.00;;;27.70;80.80;;;;;;5144449;28;20029;-55
2022/04/09 03:37:47;;;;;;;23.23;19.67;;;27.70;80.80;;;;;;5144843;28;20026;-52
2022/04/09 03:40:14;;;;;;;25.23;19.52;;;27.70;80.60;;;;;;5146222;27;20050;-50
2022/04/09 03:42:40;;;;;;;20.83;18.75;;;27.70;80.80;;;;;;5148589;27;20023;-58
2022/04/09 03:45:07;;;;;;;23.25;19.02;;;27.70;80.20;;;;;;5148529;27;20011;-55
2022/04/09 03:47:35;;;;;;;21.13;18.35;;;27.70;80.10;;;;;;5148704;27;20098;-51
2022/04/09 03:50:03;;;;;;;25.40;19.75;;;27.70;79.90;;;;;;5148178;27;20019;-54
2022/04/09 03:52:30;;;;;;;23.58;18.40;;;27.70;80.30;;;;;;5148328;27;20059;-61
2022/04/09 03:54:56;;;;;;;22.65;19.00;;;27.70;79.90;;;;;;5148279;27;20015;-53
2022/04/09 03:57:23;;;;;;;26.85;19.58;;;27.70;80.20;;;;;;5148238;27;20062;-52
2022/04/09 03:59:54;;;;;;;24.58;18.65;;;27.70;80.30;;;;;;5148056;27;20034;-55
2022/04/09 04:02:20;;;;;;;23.40;19.52;;;27.70;80.10;;;;;;5148169;27;20041;-54
2022/04/09 04:04:47;;;;;;;23.77;19.42;;;27.70;80.30;;;;;;5147857;27;20030;-55
2022/04/09 04:07:13;;;;;;;22.98;18.98;;;27.70;80.20;;;;;;5147961;27;20107;-55
2022/04/09 04:09:40;;;;;;;23.50;18.83;;;27.70;80.30;;;;;;5148106;27;20031;-50
2022/04/09 04:12:07;;;;;;;22.88;20.33;;;27.70;80.50;;;;;;5147847;27;20023;-55
2022/04/09 04:14:34;;;;;;;24.25;19.50;;;27.70;80.90;;;;;;5147749;27;20011;-53
2022/04/09 04:17:00;;;;;;;28.90;19.60;;;27.70;80.70;;;;;;5147840;27;20059;-55
2022/04/09 04:19:27;;;;;;;24.73;20.20;;;27.70;81.10;;;;;;5147602;27;20019;-57
2022/04/09 04:21:53;;;;;;;23.65;19.77;;;27.70;81.20;;;;;;5147761;27;20206;-56
2022/04/09 04:24:20;;;;;;;24.70;20.30;;;27.70;81.30;;;;;;5147498;27;20031;-62
2022/04/09 04:26:47;;;;;;;25.58;19.38;;;27.70;81.00;;;;;;5147555;27;20031;-57
2022/04/09 04:29:13;;;;;;;21.73;19.42;;;27.60;81.20;;;;;;5147443;27;20026;-57
2022/04/09 04:31:40;;;;;;;24.20;19.55;;;27.70;81.80;;;;;;5147539;27;20033;-58
2022/04/09 04:34:06;;;;;;;24.58;20.20;;;27.70;81.30;;;;;;5147509;27;20023;-55
2022/04/09 04:36:33;;;;;;;25.58;19.85;;;27.60;81.30;;;;;;5147635;27;20031;-55
2022/04/09 04:38:59;;;;;;;22.38;19.83;;;27.60;81.20;;;;;;5147418;27;20031;-56
2022/04/09 04:41:26;;;;;;;25.75;19.80;;;27.60;81.30;;;;;;5147501;27;20095;-53
2022/04/09 04:43:53;;;;;;;22.70;18.88;;;27.60;81.20;;;;;;5147363;27;20318;-55
2022/04/09 04:46:20;;;;;;;22.20;19.20;;;27.60;81.30;;;;;;5147010;27;20249;-55
2022/04/09 04:48:49;;;;;;;21.60;19.40;;;27.60;81.40;;;;;;5147174;27;20034;-60
2022/04/09 04:51:16;;;;;;;22.70;18.88;;;27.60;81.30;;;;;;5146439;27;20047;-52
2022/04/09 04:53:44;;;;;;;23.65;19.98;;;27.60;81.40;;;;;;5146953;27;20043;-58
2022/04/09 04:56:13;;;;;;;22.48;19.38;;;27.60;81.30;;;;;;5146950;27;20349;-54
2022/04/09 04:58:39;;;;;;;24.05;19.00;;;27.60;81.40;;;;;;5146774;27;20045;-54
2022/04/09 05:01:07;;;;;;;23.58;18.75;;;27.60;81.80;;;;;;5147086;27;20038;-52
2022/04/09 05:03:37;;;;;;;22.27;19.00;;;27.60;81.40;;;;;;5147215;27;20031;-55
2022/04/09 05:06:04;;;;;;;21.00;18.70;;;27.50;81.20;;;;;;5146816;27;20027;-55
2022/04/09 05:08:31;;;;;;;22.50;18.38;;;27.60;81.20;;;;;;5146728;27;20027;-53
2022/04/09 05:10:57;;;;;;;22.33;18.95;;;27.50;81.40;;;;;;5146640;27;20019;-55
2022/04/09 05:13:24;;;;;;;25.40;19.45;;;27.50;81.50;;;;;;5147074;27;20403;-54
2022/04/09 05:15:51;;;;;;;29.42;19.10;;;27.50;81.70;;;;;;5146598;27;20492;-54
2022/04/09 05:18:17;;;;;;;22.27;18.85;;;27.50;81.70;;;;;;5146869;27;20076;-55
2022/04/09 05:20:44;;;;;;;20.15;18.02;;;27.50;81.80;;;;;;5146471;27;20049;-56
2022/04/09 05:23:11;;;;;;;26.42;19.15;;;27.50;81.90;;;;;;5146827;27;20358;-55
2022/04/09 05:25:37;;;;;;;24.55;19.50;;;27.50;82.10;;;;;;5146529;27;20071;-56
2022/04/09 05:28:05;;;;;;;24.45;18.48;;;27.50;82.10;;;;;;5146615;27;20026;-54
2022/04/09 05:30:32;;;;;;;26.77;19.92;;;27.40;82.20;;;;;;5146338;27;20103;-51
2022/04/09 05:32:59;;;;;;;23.83;19.50;;;27.40;82.10;;;;;;5146667;27;20046;-54
2022/04/09 05:35:26;;;;;;;23.60;19.30;;;27.40;82.30;;;;;;5146123;27;20207;-57
2022/04/09 05:37:52;;;;;;;26.70;18.77;;;27.40;82.50;;;;;;5146291;27;20027;-56
2022/04/09 05:40:21;;;;;;;25.45;18.85;;;27.40;82.10;;;;;;5146098;27;20047;-58
2022/04/09 05:42:48;;;;;;;22.02;19.33;;;27.40;82.20;;;;;;5146187;27;20039;-58
2022/04/09 05:45:15;;;;;;;23.02;18.98;;;27.40;82.30;;;;;;5146277;27;20026;-57
2022/04/09 05:47:43;;;;;;;21.20;18.65;;;27.40;82.40;;;;;;5146218;27;20035;-55
2022/04/09 05:50:10;;;;;;;23.85;19.00;;;27.40;82.30;;;;;;5145825;27;20037;-56
2022/04/09 05:52:37;;;;;;;21.17;18.20;;;27.40;82.20;;;;;;5145661;27;20035;-57
2022/04/09 05:55:05;;;;;;;26.35;18.52;;;27.40;82.10;;;;;;5145772;27;20027;-55
2022/04/09 05:57:33;;;;;;;25.48;19.80;;;27.30;82.20;;;;;;5145848;27;20359;-54
2022/04/09 06:00:00;;;;;;;21.17;19.00;;;27.40;81.90;;;;;;5145625;27;20046;-52
2022/04/09 06:02:27;;;;;;;22.40;18.95;;;27.30;82.00;;;;;;5145036;27;20054;-57
2022/04/09 06:04:54;;;;;;;24.73;19.23;;;27.30;82.20;;;;;;5145541;27;20082;-51
2022/04/09 06:07:20;;;;;;;23.30;18.88;;;27.30;82.00;;;;;;5145758;27;20035;-54
2022/04/09 06:09:49;;;;;;;25.67;19.13;;;27.30;82.00;;;;;;5145642;27;20026;-55
2022/04/09 06:12:16;;;;;;;21.67;19.40;;;27.30;82.10;;;;;;5145433;27;20199;-58
2022/04/09 06:14:42;;;;;;;25.65;19.50;;;27.30;82.10;;;;;;5145596;27;20031;-56
2022/04/09 06:17:09;;;;;;;23.13;19.77;;;27.30;82.50;;;;;;5145846;27;20031;-55
2022/04/09 06:19:35;;;;;;;21.95;19.27;;;27.30;82.50;;;;;;5145151;27;20023;-59
2022/04/09 06:22:02;;;;;;;22.80;18.70;;;27.30;82.50;;;;;;5145454;27;20054;-57
2022/04/09 06:24:29;;;;;;;22.20;19.92;;;27.30;82.50;;;;;;5145222;27;20027;-55
2022/04/09 06:26:55;;;;;;;24.30;19.42;;;27.30;82.50;;;;;;5144936;27;20211;-54
2022/04/09 06:29:22;;;;;;;24.63;18.95;;;27.30;82.60;;;;;;5145340;27;20038;-57
2022/04/09 06:31:48;;;;;;;24.30;18.13;;;27.30;82.60;;;;;;5145352;27;20026;-54
2022/04/09 06:34:18;;;;;;;24.00;19.30;;;27.30;82.40;;;;;;5145089;27;20015;-54
2022/04/09 06:36:45;;;;;;;26.23;18.85;;;27.20;82.00;;;;;;5144987;27;20027;-56
2022/04/09 06:39:11;;;;;;;23.20;18.98;;;27.30;82.10;;;;;;5145095;27;20035;-55
2022/04/09 06:41:38;;;;;;;22.13;18.63;;;27.20;82.20;;;;;;5145010;27;20026;-54
2022/04/09 06:44:06;;;;;;;23.67;19.55;;;27.20;82.10;;;;;;5144974;27;20375;-55
2022/04/09 06:46:33;;;;;;;20.83;18.60;;;27.20;81.90;;;;;;5144850;27;20467;-56
2022/04/09 06:48:59;;;;;;;22.17;18.17;;;27.20;82.00;;;;;;5144905;27;20333;-53
2022/04/09 06:51:26;;;;;;;24.33;18.75;;;27.20;81.70;;;;;;5144699;27;20055;-53
2022/04/09 06:53:53;;;;;;;21.90;19.45;;;27.20;82.00;;;;;;5144949;28;20031;-52
2022/04/09 06:56:20;;;;;;;23.17;18.33;;;27.20;82.00;;;;;;5144764;28;20090;-53
2022/04/09 06:58:46;;;;;;;25.70;18.60;;;27.20;82.30;;;;;;5144882;28;20039;-52
2022/04/09 07:01:13;;;;;;;22.73;18.67;;;27.20;82.10;;;;;;5144864;28;20020;-57
2022/04/09 07:03:39;;;;;;;23.80;18.75;;;27.20;82.20;;;;;;5144755;28;20030;-55
2022/04/09 07:06:06;;;;;;;22.60;19.17;;;27.20;82.30;;;;;;5144882;28;20030;-55
2022/04/09 07:08:32;;;;;;;22.08;18.42;;;27.20;82.10;;;;;;5145327;28;20034;-54
2022/04/09 07:10:59;;;;;;;23.15;18.80;;;27.20;82.10;;;;;;5144716;28;20019;-54
2022/04/09 07:13:26;;;;;;;22.55;18.85;;;27.20;82.10;;;;;;5145573;27;20028;-53
2022/04/09 07:15:52;;;;;;;23.50;18.65;;;27.20;82.30;;;;;;5149090;27;20058;-53
2022/04/09 07:18:19;;;;;;;23.30;17.52;;;27.20;82.10;;;;;;5149317;27;20283;-52
2022/04/09 07:20:45;;;;;;;21.88;18.40;;;27.20;82.20;;;;;;5148935;27;20327;-54
2022/04/09 07:23:12;;;;;;;23.27;18.25;;;27.20;82.10;;;;;;5149360;27;20035;-57
2022/04/09 07:25:39;;;;;;;21.02;18.27;;;27.20;82.00;;;;;;5148676;27;20023;-58
2022/04/09 07:28:06;;;;;;;22.25;18.02;;;27.20;82.00;;;;;;5149046;27;20316;-55
2022/04/09 07:30:32;;;;;;;22.73;17.95;;;27.20;82.10;;;;;;5148727;27;20208;-54
2022/04/09 07:32:59;;;;;;;20.70;18.10;;;27.20;82.00;;;;;;5148975;27;20038;-53
2022/04/09 07:35:27;;;;;;;23.67;17.60;;;27.20;81.80;;;;;;5148469;27;20222;-52
2022/04/09 07:37:55;;;;;;;22.65;18.35;;;27.20;81.90;;;;;;5148628;27;20031;-55
2022/04/09 07:40:30;;;;;;;24.92;17.35;;;27.20;82.00;;;;;;5148571;27;20026;-54
2022/04/09 07:42:59;;;;;;;20.75;18.35;;;27.20;82.00;;;;;;5148739;27;20098;-52
2022/04/09 07:45:27;;;;;;;20.02;17.85;;;27.20;82.20;;;;;;5148453;27;20027;-52
2022/04/09 07:47:55;;;;;;;22.70;17.55;;;27.20;82.40;;;;;;5148561;27;20027;-57
2022/04/09 07:50:25;;;;;;;22.13;18.35;;;27.10;82.10;;;;;;5148164;27;20027;-53
2022/04/09 07:52:53;;;;;;;20.65;17.45;;;27.20;82.40;;;;;;5148535;27;20275;-57
2022/04/09 07:55:20;;;;;;;20.17;17.90;;;27.10;82.30;;;;;;5148051;27;20038;-54
2022/04/09 07:57:51;;;;;;;22.77;17.33;;;27.20;82.50;;;;;;5148648;27;20015;-59
2022/04/09 08:00:20;;;;;;;22.88;18.52;;;27.20;82.50;;;;;;5148074;27;20023;-59
2022/04/09 08:02:47;;;;;;;25.40;17.45;;;27.20;82.50;;;;;;5148300;27;20019;-57
2022/04/09 08:05:13;;;;;;;24.90;17.55;;;27.20;82.50;;;;;;5147957;27;20207;-57
2022/04/09 08:07:41;;;;;;;24.63;18.63;;;27.20;82.60;;;;;;5148248;27;20058;-55
2022/04/09 08:10:08;;;;;;;26.27;18.77;;;27.20;82.60;;;;;;5147817;27;20023;-56
2022/04/09 08:12:35;;;;;;;24.50;19.13;;;27.20;82.70;;;;;;5148212;27;20188;-54
2022/04/09 08:15:03;;;;;;;23.10;18.73;;;27.10;82.50;;;;;;5148081;27;20077;-53
2022/04/09 08:17:30;;;;;;;23.92;17.92;;;27.10;82.40;;;;;;5147869;27;20019;-53
2022/04/09 08:19:59;;;;;;;21.45;17.88;;;27.10;82.40;;;;;;5147689;27;20078;-52
2022/04/09 08:22:27;;;;;;;20.88;18.40;;;27.20;82.60;;;;;;5147561;27;20030;-53
2022/04/09 08:24:53;;;;;;;22.83;18.95;;;27.10;82.60;;;;;;5147083;27;20395;-55
2022/04/09 08:27:20;;;;;;;24.20;18.80;;;27.20;82.90;;;;;;5147425;27;20030;-55
2022/04/09 08:29:47;;;;;;;25.40;18.75;;;27.20;82.80;;;;;;5147854;27;20361;-54
2022/04/09 08:32:14;;;;;;;21.23;18.15;;;27.10;83.00;;;;;;5147475;27;20042;-55
2022/04/09 08:34:40;;;;;;;22.90;18.50;;;27.10;83.10;;;;;;5147788;27;20022;-55
2022/04/09 08:37:07;;;;;;;24.80;18.95;;;27.10;83.10;;;;;;5147627;27;20034;-53
2022/04/09 08:39:36;;;;;;;22.17;18.08;;;27.10;83.40;;;;;;5147072;27;20026;-58
2022/04/09 08:42:04;;;;;;;20.92;18.55;;;27.20;83.40;;;;;;5147381;27;20035;-55
2022/04/09 08:44:33;;;;;;;22.73;19.25;;;27.10;83.30;;;;;;5147179;27;20038;-53
2022/04/09 08:47:00;;;;;;;21.10;18.90;;;27.10;83.50;;;;;;5147109;27;20029;-51
2022/04/09 08:49:33;;;;;;;23.02;18.58;;;27.10;83.60;;;;;;5147222;27;20357;-54
2022/04/09 08:52:00;;;;;;;23.40;18.45;;;27.10;83.70;;;;;;5147071;27;20039;-59
2022/04/09 08:54:27;;;;;;;24.23;18.15;;;27.10;83.70;;;;;;5147190;27;20237;-53
2022/04/09 08:56:53;;;;;;;24.27;18.67;;;27.10;83.70;;;;;;5147108;27;20026;-56
2022/04/09 08:59:20;;;;;;;22.42;18.20;;;27.10;83.90;;;;;;5146943;27;20258;-55
2022/04/09 09:01:47;;;;;;;20.52;17.90;;;27.10;83.80;;;;;;5146877;27;20360;-56
2022/04/09 09:04:16;;;;;;;21.00;18.33;;;27.10;83.90;;;;;;5146832;27;20026;-55
2022/04/09 09:06:45;;;;;;;21.40;18.33;;;27.10;84.00;;;;;;5146621;27;20098;-54
2022/04/09 09:09:27;;;;;;;24.52;18.55;;;27.10;83.90;;;;;;5146740;27;20076;-53
2022/04/09 09:11:53;;;;;;;21.50;18.45;;;27.10;83.60;;;;;;5146831;27;20027;-53
2022/04/09 09:14:34;;;;;;;19.75;17.30;;;27.10;83.50;;;;;;5146756;27;20023;-55
2022/04/09 09:17:03;;;;;;;20.15;17.38;;;27.10;83.40;;;;;;5146846;27;20034;-53
2022/04/09 09:19:50;;;;;;;20.23;18.13;;;27.10;83.20;;;;;;5146503;27;20027;-56
2022/04/09 09:22:17;;;;;;;20.58;17.35;;;27.10;83.20;;;;;;5146664;27;20023;-54
2022/04/09 09:24:43;;;;;;;24.80;17.88;;;27.10;83.40;;;;;;5146354;27;20055;-53
2022/04/09 09:27:10;;;;;;;23.05;18.65;;;27.10;83.30;;;;;;5146444;27;20026;-50
2022/04/09 09:29:39;;;;;;;23.23;18.27;;;27.10;83.10;;;;;;5146436;27;20031;-53
2022/04/09 09:32:07;;;;;;;23.65;18.35;;;27.10;83.40;;;;;;5146239;27;20041;-54
2022/04/09 09:34:34;;;;;;;22.30;18.52;;;27.10;83.40;;;;;;5146181;27;20087;-57
2022/04/09 09:37:00;;;;;;;23.38;17.35;;;27.00;83.40;;;;;;5146203;27;20027;-59
2022/04/09 09:39:28;;;;;;;21.63;17.85;;;27.00;83.30;;;;;;5145973;27;20086;-61
2022/04/09 09:41:57;;;;;;;27.17;17.95;;;27.10;83.30;;;;;;5146157;27;20022;-59
2022/04/09 09:44:31;;;;;;;20.38;17.23;;;27.10;83.30;;;;;;5146042;27;20027;-55
2022/04/09 09:47:07;;;;;;;20.00;17.20;;;27.10;83.30;;;;;;5145921;27;20034;-52
2022/04/09 09:49:40;;;;;;;26.83;18.13;;;27.10;83.30;;;;;;5146024;27;20065;-56
2022/04/09 09:52:08;;;;;;;22.00;17.65;;;27.10;83.20;;;;;;5145746;27;20043;-54
2022/04/09 09:54:53;;;;;;;25.48;17.67;;;27.10;83.20;;;;;;5145744;27;20201;-53
2022/04/09 10:08:08;;;;;;;25.85;17.58;;;27.00;83.00;;;;;;5146095;27;20284;-57
2022/04/09 10:10:41;;;;;;;19.08;16.70;;;27.00;83.00;;;;;;5145564;27;20023;-61
2022/04/09 10:13:09;;;;;;;20.48;16.50;;;27.00;83.00;;;;;;5145888;27;20023;-53
2022/04/09 10:15:39;;;;;;;20.65;16.48;;;27.00;82.90;;;;;;5145481;27;20091;-55
2022/04/09 10:18:08;;;;;;;20.30;16.63;;;27.00;82.70;;;;;;5145871;27;20236;-55
2022/04/09 10:20:39;;;;;;;20.50;16.35;;;27.00;82.50;;;;;;5145302;27;20027;-56
2022/04/09 10:23:09;;;;;;;21.48;16.38;;;27.00;82.70;;;;;;5145745;27;20048;-54
2022/04/09 10:25:40;;;;;;;26.05;16.60;;;27.00;82.50;;;;;;5145232;27;20042;-55
2022/04/09 10:28:08;;;;;;;19.70;17.08;;;27.00;82.50;;;;;;5145729;27;20031;-57
2022/04/09 10:30:41;;;;;;;21.45;15.32;;;27.00;82.40;;;;;;5145218;27;20031;-56
2022/04/09 10:33:36;;;;;;;19.02;16.48;;;27.00;82.20;;;;;;5145543;27;20019;-54
2022/04/09 10:36:03;;;;;;;21.63;16.48;;;27.00;82.10;;;;;;5141952;27;20039;-56
2022/04/09 10:38:29;;;;;;;20.25;16.38;;;27.00;82.20;;;;;;5145323;27;20060;-56
2022/04/09 10:41:02;;;;;;;23.95;16.80;;;27.00;82.10;;;;;;5145095;27;20049;-55
2022/04/09 10:43:30;;;;;;;20.05;16.85;;;27.00;82.20;;;;;;5145669;27;20333;-53
2022/04/09 10:46:04;;;;;;;18.92;16.33;;;27.00;82.40;;;;;;5145143;27;20063;-53
2022/04/09 10:48:37;;;;;;;18.15;15.50;;;27.00;82.40;;;;;;5144981;27;20185;-59
2022/04/09 10:51:06;;;;;;;21.77;16.45;;;27.00;82.40;;;;;;5144818;27;20046;-55
2022/04/09 10:53:49;;;;;;;19.27;15.82;;;27.00;82.30;;;;;;5144880;28;20059;-53
2022/04/09 10:56:29;;;;;;;18.60;15.38;;;27.00;82.10;;;;;;5144778;28;20078;-52
2022/04/09 10:59:08;;;;;;;18.95;15.60;;;27.00;81.90;;;;;;5145208;28;20035;-53
2022/04/09 11:01:47;;;;;;;18.17;15.18;;;27.00;81.90;;;;;;5144831;28;20026;-57
2022/04/09 11:04:29;;;;;;;18.30;15.73;;;27.00;82.00;;;;;;5145039;28;20058;-55
2022/04/09 11:07:02;;;;;;;19.58;15.13;;;27.00;82.50;;;;;;5144693;28;20027;-53
2022/04/09 11:09:56;;;;;;;18.77;16.42;;;27.00;82.10;;;;;;5144884;28;20027;-53
2022/04/09 11:12:42;;;;;;;19.58;16.42;;;27.00;82.10;;;;;;5144936;28;20090;-54
2022/04/09 11:15:11;;;;;;;21.50;16.88;;;27.00;82.40;;;;;;5144671;28;20027;-55
2022/04/09 11:17:40;;;;;;;23.85;17.77;;;27.00;82.50;;;;;;5144975;28;20090;-54
2022/04/09 11:20:11;;;;;;;21.25;17.90;;;27.00;82.40;;;;;;5144650;28;20303;-55
2022/04/09 11:22:47;;;;;;;23.43;17.40;;;27.00;82.20;;;;;;5144918;28;20189;-54
2022/04/09 11:25:28;;;;;;;21.60;16.80;;;27.00;82.50;;;;;;5126392;28;20438;-54
2022/04/09 11:28:19;;;;;;;20.77;16.23;;;27.00;82.70;;;;;;5144757;28;20046;-55
2022/04/09 11:31:00;;;;;;;21.50;17.70;;;27.00;83.00;;;;;;5144557;28;20023;-59
2022/04/09 11:33:27;;;;;;;27.48;17.38;;;27.00;83.20;;;;;;5145082;28;20024;-55
2022/04/09 11:35:55;;;;;;;18.92;16.38;;;27.00;83.20;;;;;;5144682;28;20031;-54
2022/04/09 11:38:25;;;;;;;20.55;16.05;;;27.00;83.10;;;;;;5144334;28;20062;-52
2022/04/09 11:40:53;;;;;;;18.38;16.00;;;27.00;83.10;;;;;;5144481;28;20054;-58
2022/04/09 11:43:20;;;;;;;20.30;16.27;;;27.00;83.00;;;;;;5144927;28;20022;-54
2022/04/09 11:45:48;;;;;;;21.38;17.00;;;27.00;83.00;;;;;;5144501;28;20068;-53
2022/04/09 11:48:26;;;;;;;23.02;16.90;;;27.00;82.90;;;;;;5144719;28;20047;-61
2022/04/09 11:50:53;;;;;;;21.15;17.20;;;27.00;82.90;;;;;;5144412;28;20075;-53
2022/04/09 11:53:23;;;;;;;23.10;16.30;;;27.00;83.30;;;;;;5144751;28;20401;-55
2022/04/09 11:55:59;;;;;;;20.10;16.50;;;27.10;83.50;;;;;;5144273;28;20032;-53
2022/04/09 11:58:35;;;;;;;23.88;17.02;;;27.00;83.50;;;;;;5145095;28;20075;-58
2022/04/09 12:01:06;;;;;;;22.10;17.85;;;27.10;83.40;;;;;;5145657;27;20057;-56
2022/04/09 12:03:32;;;;;;;20.95;17.38;;;27.10;83.60;;;;;;5148480;27;20037;-53
2022/04/09 12:06:01;;;;;;;20.70;15.82;;;27.10;83.80;;;;;;5148052;27;20041;-55
2022/04/09 12:08:33;;;;;;;21.33;16.20;;;27.10;83.60;;;;;;5148291;27;20015;-55
2022/04/09 12:11:01;;;;;;;19.83;16.00;;;27.10;83.80;;;;;;5147754;27;20033;-52
2022/04/09 12:13:36;;;;;;;20.50;16.77;;;27.10;83.90;;;;;;5148357;27;20027;-56
2022/04/09 12:16:24;;;;;;;19.15;16.02;;;27.20;84.10;;;;;;5147904;27;20030;-54
2022/04/09 12:18:51;;;;;;;20.45;16.08;;;27.10;84.20;;;;;;5148002;27;20035;-56
2022/04/09 12:21:26;;;;;;;23.10;16.40;;;27.10;84.40;;;;;;5147703;27;20053;-54
2022/04/09 12:24:18;;;;;;;22.55;16.63;;;27.20;84.70;;;;;;5147995;27;20046;-54
2022/04/09 12:26:45;;;;;;;;;;;27.20;84.80;;;;;;5143667;27;20304;-54
2022/04/09 12:29:26;;;;;;;22.75;16.25;;;27.20;84.90;;;;;;5147468;27;19974;-52
2022/04/09 12:32:11;;;;;;;27.75;17.23;;;27.20;85.10;;;;;;5147669;27;20266;-54
2022/04/09 12:34:52;;;;;;;27.95;16.45;;;27.20;85.20;;;;;;5147498;27;20039;-52
2022/04/09 12:37:20;;;;;;;23.02;16.92;;;27.20;85.30;;;;;;5147538;27;20031;-54
2022/04/09 12:39:46;;;;;;;21.85;16.50;;;27.30;85.40;;;;;;5147762;27;20196;-58
2022/04/09 12:42:15;;;;;;;24.75;16.38;;;27.20;85.30;;;;;;5147467;27;20061;-56
2022/04/09 12:44:43;;;;;;;23.98;17.40;;;27.20;85.40;;;;;;5147085;27;20316;-58
2022/04/09 12:47:09;;;;;;;23.27;17.00;;;27.20;85.30;;;;;;5147495;27;20094;-54